createdAt,value
2022-09-09T00:00:15.265Z,5.40
2022-09-09T00:02:45.534Z,5.27
2022-09-09T00:05:17.037Z,5.23
2022-09-09T00:07:46.491Z,5.30
2022-09-09T00:10:17.883Z,5.93
2022-09-09T00:12:47.364Z,5.20
2022-09-09T00:15:16.714Z,5.73
2022-09-09T00:17:48.627Z,5.53
2022-09-09T00:20:17.571Z,5.87
2022-09-09T00:22:48.374Z,5.77
2022-09-09T00:25:18.108Z,6.17
2022-09-09T00:27:48.143Z,5.60
2022-09-09T00:30:19.691Z,6.00
2022-09-09T00:32:49.673Z,6.03
2022-09-09T00:35:20.144Z,6.20
2022-09-09T00:37:49.989Z,6.13
2022-09-09T00:40:22.654Z,6.03
2022-09-09T00:42:51.283Z,6.53
2022-09-09T00:45:22.386Z,7.23
2022-09-09T00:47:52.795Z,5.90
2022-09-09T00:50:39.088Z,5.93
2022-09-09T00:53:14.216Z,6.13
2022-09-09T00:55:43.944Z,5.97
2022-09-09T00:58:12.452Z,6.00
2022-09-09T01:00:42.807Z,5.53
2022-09-09T01:03:25.526Z,5.93
2022-09-09T01:05:56.983Z,5.63
2022-09-09T01:08:31.162Z,5.17
2022-09-09T01:10:59.543Z,5.77
2022-09-09T01:13:31.224Z,5.50
2022-09-09T01:16:02.062Z,5.07
2022-09-09T01:18:32.276Z,4.90
2022-09-09T01:21:03.947Z,4.67
2022-09-09T01:23:45.105Z,4.70
2022-09-09T01:26:19.440Z,4.40
2022-09-09T01:28:48.565Z,4.50
2022-09-09T01:31:18.218Z,5.00
2022-09-09T01:33:46.556Z,4.60
2022-09-09T01:36:15.714Z,4.63
2022-09-09T01:38:44.145Z,4.80
2022-09-09T01:41:12.587Z,4.27
2022-09-09T01:43:42.347Z,4.23
2022-09-09T01:46:10.887Z,4.20
2022-09-09T01:48:39.375Z,3.70
2022-09-09T01:51:07.913Z,3.37
2022-09-09T01:53:36.267Z,4.20
2022-09-09T01:56:07.760Z,3.30
2022-09-09T01:58:37.402Z,3.20
2022-09-09T02:01:08.762Z,3.07
2022-09-09T02:03:37.186Z,2.30
2022-09-09T02:06:08.331Z,2.53
2022-09-09T02:08:39.100Z,2.13
2022-09-09T02:11:08.601Z,2.40
2022-09-09T02:13:37.756Z,2.17
2022-09-09T02:16:06.758Z,2.47
2022-09-09T02:18:37.876Z,2.23
2022-09-09T02:21:06.273Z,2.10
2022-09-09T02:23:34.572Z,2.17
2022-09-09T02:26:05.156Z,2.20
2022-09-09T02:28:33.641Z,2.10
2022-09-09T02:31:02.271Z,2.00
2022-09-09T02:33:31.529Z,2.10
2022-09-09T02:36:04.502Z,2.13
2022-09-09T02:38:34.066Z,2.57
2022-09-09T02:41:03.020Z,2.30
2022-09-09T02:43:33.855Z,2.13
2022-09-09T02:46:04.765Z,2.57
2022-09-09T02:48:33.796Z,2.00
2022-09-09T02:51:06.029Z,2.37
2022-09-09T02:53:34.897Z,2.10
2022-09-09T02:56:04.069Z,2.27
2022-09-09T02:58:32.820Z,2.13
2022-09-09T03:01:02.242Z,2.83
2022-09-09T03:03:31.366Z,2.57
2022-09-09T03:06:00.103Z,1.73
2022-09-09T03:08:29.976Z,2.53
2022-09-09T03:10:58.652Z,1.93
2022-09-09T03:13:26.961Z,2.20
2022-09-09T03:15:55.307Z,2.10
2022-09-09T03:18:24.072Z,2.50
2022-09-09T03:20:55.063Z,2.27
2022-09-09T03:23:23.938Z,2.40
2022-09-09T03:25:55.754Z,2.30
2022-09-09T03:28:24.245Z,2.07
2022-09-09T03:30:53.026Z,2.97
2022-09-09T03:33:21.325Z,2.43
2022-09-09T03:35:49.787Z,2.40
2022-09-09T03:38:18.160Z,2.33
2022-09-09T03:40:52.168Z,2.33
2022-09-09T03:43:22.273Z,2.53
2022-09-09T03:45:50.786Z,2.50
2022-09-09T03:48:19.545Z,2.40
2022-09-09T03:50:47.927Z,2.00
2022-09-09T03:53:16.813Z,2.33
2022-09-09T03:55:46.579Z,2.57
2022-09-09T03:58:15.020Z,2.10
2022-09-09T04:00:46.177Z,2.40
2022-09-09T04:03:14.652Z,2.00
2022-09-09T04:05:43.414Z,2.43
2022-09-09T04:08:12.438Z,1.83
2022-09-09T04:10:40.853Z,2.23
2022-09-09T04:13:09.181Z,2.33
2022-09-09T04:15:37.662Z,2.10
2022-09-09T04:18:07.574Z,2.17
2022-09-09T04:20:36.493Z,2.27
2022-09-09T04:23:05.432Z,2.10
2022-09-09T04:25:34.868Z,2.57
2022-09-09T04:28:03.746Z,2.30
2022-09-09T04:30:32.903Z,2.33
2022-09-09T04:33:01.327Z,2.53
2022-09-09T04:35:30.984Z,2.33
2022-09-09T04:37:59.399Z,2.77
2022-09-09T04:40:27.738Z,2.50
2022-09-09T04:42:56.145Z,2.53
2022-09-09T04:45:24.506Z,2.67
2022-09-09T04:47:52.997Z,2.60
2022-09-09T04:50:21.352Z,2.50
2022-09-09T04:52:51.173Z,2.37
2022-09-09T04:55:19.636Z,2.70
2022-09-09T04:57:48.052Z,2.57
2022-09-09T05:00:18.072Z,2.77
2022-09-09T05:02:46.530Z,2.33
2022-09-09T05:05:14.911Z,3.13
2022-09-09T05:07:43.232Z,2.80
2022-09-09T05:10:15.119Z,3.27
2022-09-09T05:12:43.453Z,3.23
2022-09-09T05:15:12.815Z,3.30
2022-09-09T05:17:41.306Z,3.90
2022-09-09T05:20:11.895Z,3.00
2022-09-09T05:22:42.906Z,3.40
2022-09-09T05:25:12.589Z,3.20
2022-09-09T05:27:40.944Z,3.27
2022-09-09T05:30:09.908Z,3.70
2022-09-09T05:32:38.254Z,3.33
2022-09-09T05:35:07.085Z,3.30
2022-09-09T05:37:35.996Z,3.20
2022-09-09T05:40:04.846Z,3.30
2022-09-09T05:42:34.978Z,3.40
2022-09-09T05:45:03.534Z,3.20
2022-09-09T05:47:31.955Z,3.60
2022-09-09T05:50:00.337Z,3.10
2022-09-09T05:52:28.668Z,3.17
2022-09-09T05:54:58.023Z,2.80
2022-09-09T05:57:26.563Z,2.87
2022-09-09T05:59:56.334Z,3.50
2022-09-09T06:02:24.747Z,3.03
2022-09-09T06:04:54.261Z,3.40
2022-09-09T06:07:23.989Z,3.10
2022-09-09T06:09:52.606Z,3.17
2022-09-09T06:12:21.898Z,3.63
2022-09-09T06:14:51.866Z,3.13
2022-09-09T06:17:21.765Z,3.20
2022-09-09T06:19:50.143Z,4.00
2022-09-09T06:22:18.632Z,3.73
2022-09-09T06:24:46.980Z,4.20
2022-09-09T06:27:15.609Z,3.80
2022-09-09T06:29:43.925Z,4.23
2022-09-09T06:32:12.238Z,4.23
2022-09-09T06:34:42.018Z,4.23
2022-09-09T06:37:11.514Z,4.20
2022-09-09T06:39:39.851Z,4.70
2022-09-09T06:42:09.928Z,4.70
2022-09-09T06:44:38.439Z,4.33
2022-09-09T06:47:07.015Z,4.40
2022-09-09T06:49:36.021Z,4.10
2022-09-09T06:52:06.087Z,4.50
2022-09-09T06:54:34.736Z,4.23
2022-09-09T06:57:20.835Z,4.00
2022-09-09T06:59:52.477Z,4.43
2022-09-09T07:02:21.115Z,4.80
2022-09-09T07:04:51.377Z,4.33
2022-09-09T07:07:21.039Z,5.57
2022-09-09T07:09:50.226Z,5.10
2022-09-09T07:12:18.706Z,4.30
2022-09-09T07:14:47.370Z,4.63
2022-09-09T07:17:15.673Z,4.77
2022-09-09T07:19:44.204Z,5.17
2022-09-09T07:22:12.634Z,5.10
2022-09-09T07:24:42.315Z,4.70
2022-09-09T07:27:10.692Z,4.90
2022-09-09T07:29:39.359Z,4.80
2022-09-09T07:32:07.929Z,5.10
2022-09-09T07:34:36.507Z,5.10
2022-09-09T07:37:04.799Z,5.17
2022-09-09T07:39:33.423Z,5.03
2022-09-09T07:42:03.199Z,5.30
2022-09-09T07:44:33.303Z,5.27
2022-09-09T07:47:01.585Z,5.73
2022-09-09T07:49:32.856Z,4.63
2022-09-09T07:52:01.589Z,5.00
2022-09-09T07:54:30.134Z,4.40
2022-09-09T07:57:00.301Z,4.20
2022-09-09T07:59:30.964Z,4.30
2022-09-09T08:01:59.548Z,4.20
2022-09-09T08:04:29.195Z,4.03
2022-09-09T08:06:58.274Z,4.43
2022-09-09T08:09:28.150Z,3.80
2022-09-09T08:11:57.351Z,4.43
2022-09-09T08:14:25.743Z,4.93
2022-09-09T08:16:55.650Z,4.77
2022-09-09T08:19:24.507Z,4.13
2022-09-09T08:21:52.870Z,4.43
2022-09-09T08:24:21.211Z,3.77
2022-09-09T08:26:50.611Z,3.93
2022-09-09T08:29:18.946Z,3.63
2022-09-09T08:31:47.968Z,4.50
2022-09-09T08:34:18.601Z,4.33
2022-09-09T08:36:47.435Z,4.13
2022-09-09T08:39:16.077Z,4.23
2022-09-09T08:41:52.134Z,3.57
2022-09-09T08:44:22.770Z,3.40
2022-09-09T08:46:53.343Z,3.97
2022-09-09T08:49:26.911Z,3.37
2022-09-09T08:51:56.305Z,3.63
2022-09-09T08:54:48.466Z,4.23
2022-09-09T08:57:15.053Z,3.77
2022-09-09T08:59:43.379Z,4.00
2022-09-09T09:02:16.848Z,4.17
2022-09-09T09:04:50.973Z,4.30
2022-09-09T09:07:22.170Z,4.30
2022-09-09T09:09:53.863Z,3.50
2022-09-09T09:12:22.867Z,3.50
2022-09-09T09:14:51.508Z,3.50
2022-09-09T09:17:20.173Z,4.10
2022-09-09T09:19:50.679Z,3.40
2022-09-09T09:22:21.106Z,3.50
2022-09-09T09:24:52.832Z,3.73
2022-09-09T09:27:24.441Z,3.33
2022-09-09T09:30:21.097Z,3.30
2022-09-09T09:32:42.149Z,3.60
2022-09-09T09:35:14.925Z,3.17
2022-09-09T09:40:35.500Z,3.63
2022-09-09T09:43:08.996Z,3.60
2022-09-09T09:45:43.959Z,3.63
2022-09-09T09:48:15.760Z,3.90
2022-09-09T09:50:51.396Z,3.83
2022-09-09T09:53:21.921Z,3.87
2022-09-09T09:55:51.588Z,3.70
2022-09-09T09:58:20.003Z,3.63
2022-09-09T10:00:52.148Z,3.93
2022-09-09T10:03:24.690Z,3.83
2022-09-09T10:05:57.250Z,3.40
2022-09-09T10:08:25.670Z,3.83
2022-09-09T10:11:02.811Z,3.53
2022-09-09T10:13:33.482Z,3.57
2022-09-09T10:16:05.668Z,4.27
2022-09-09T10:18:42.729Z,4.00
2022-09-09T10:21:16.644Z,4.13
2022-09-09T10:23:49.266Z,4.30
2022-09-09T10:26:20.934Z,4.50
2022-09-09T10:28:59.183Z,4.30
2022-09-09T10:31:31.000Z,4.27
2022-09-09T10:34:00.345Z,4.03
2022-09-09T10:36:30.796Z,4.43
2022-09-09T10:39:01.257Z,4.37
2022-09-09T10:41:35.519Z,4.70
2022-09-09T10:44:07.577Z,4.53
2022-09-09T10:46:38.103Z,4.50
2022-09-09T10:49:09.904Z,4.27
2022-09-09T10:51:43.186Z,4.63
2022-09-09T10:54:18.279Z,4.97
2022-09-09T10:56:47.162Z,4.83
2022-09-09T10:59:16.660Z,4.40
2022-09-09T11:01:46.041Z,4.47
2022-09-09T11:04:16.191Z,4.37
2022-09-09T11:06:47.954Z,4.50
2022-09-09T11:09:18.096Z,4.33
2022-09-09T11:11:47.724Z,5.40
2022-09-09T11:14:18.404Z,4.60
2022-09-09T11:16:49.204Z,4.47
2022-09-09T11:19:19.541Z,4.90
2022-09-09T11:21:50.457Z,5.10
2022-09-09T11:24:19.516Z,4.80
2022-09-09T11:26:48.213Z,5.10
2022-09-09T11:29:45.128Z,6.20
2022-09-09T11:32:17.644Z,6.00
2022-09-09T11:34:50.563Z,5.67
2022-09-09T11:37:39.980Z,5.10
2022-09-09T11:40:17.194Z,5.73
2022-09-09T11:42:45.586Z,5.80
2022-09-09T11:45:20.217Z,6.20
2022-09-09T11:47:54.261Z,5.33
2022-09-09T11:50:32.884Z,5.27
2022-09-09T11:53:21.974Z,5.10
2022-09-09T11:55:51.823Z,4.50
2022-09-09T11:58:21.585Z,4.57
2022-09-09T12:00:51.139Z,4.27
2022-09-09T12:03:35.594Z,4.80
2022-09-09T12:06:12.071Z,4.50
2022-09-09T12:08:40.767Z,4.30
2022-09-09T12:11:10.637Z,4.20
2022-09-09T12:13:39.057Z,4.23
2022-09-09T12:16:07.569Z,4.47
2022-09-09T12:18:36.739Z,3.73
2022-09-09T12:21:06.925Z,3.80
2022-09-09T12:23:38.765Z,3.40
2022-09-09T12:26:23.131Z,3.70
2022-09-09T12:28:54.999Z,3.23
2022-09-09T12:31:24.657Z,3.50
2022-09-09T12:33:53.955Z,3.47
2022-09-09T12:36:22.708Z,3.90
2022-09-09T12:38:52.511Z,3.17
2022-09-09T12:41:25.744Z,3.60
2022-09-09T12:43:55.735Z,2.63
2022-09-09T12:46:27.327Z,3.47
2022-09-09T12:48:56.707Z,2.80
2022-09-09T12:51:27.384Z,2.67
2022-09-09T12:53:55.767Z,2.87
2022-09-09T12:56:27.641Z,2.60
2022-09-09T12:58:56.511Z,2.30
2022-09-09T13:01:26.174Z,2.40
2022-09-09T13:03:54.669Z,2.00
2022-09-09T13:06:28.775Z,2.20
2022-09-09T13:08:58.093Z,2.23
2022-09-09T13:11:29.323Z,2.00
2022-09-09T13:13:58.006Z,2.27
2022-09-09T13:16:31.488Z,2.60
2022-09-09T13:19:00.230Z,2.00
2022-09-09T13:21:35.536Z,2.50
2022-09-09T13:24:05.451Z,2.43
2022-09-09T13:26:35.241Z,2.70
2022-09-09T13:29:19.905Z,2.47
2022-09-09T13:31:48.436Z,2.13
2022-09-09T13:34:17.087Z,1.30
2022-09-09T13:36:49.741Z,1.10
2022-09-09T13:39:18.704Z,1.00
2022-09-09T13:41:49.557Z,1.13
2022-09-09T13:44:20.476Z,1.30
2022-09-09T13:46:48.801Z,1.10
2022-09-09T13:49:23.723Z,1.00
2022-09-09T13:51:54.625Z,1.53
2022-09-09T13:54:23.829Z,1.50
2022-09-09T13:56:54.724Z,1.60
2022-09-09T13:59:23.790Z,1.90
2022-09-09T14:01:53.529Z,1.70
2022-09-09T14:04:22.773Z,1.77
2022-09-09T14:06:51.169Z,1.90
2022-09-09T14:09:19.853Z,1.83
2022-09-09T14:11:48.431Z,2.63
2022-09-09T14:14:18.056Z,2.60
2022-09-09T14:16:46.606Z,2.50
2022-09-09T14:19:14.961Z,2.53
2022-09-09T14:21:46.151Z,2.67
2022-09-09T14:24:15.146Z,2.23
2022-09-09T14:26:43.548Z,2.50
2022-09-09T14:29:11.889Z,2.23
2022-09-09T14:31:41.652Z,2.00
2022-09-09T14:34:11.004Z,2.00
2022-09-09T14:36:39.409Z,1.70
2022-09-09T14:39:07.894Z,2.17
2022-09-09T14:41:36.360Z,1.90
2022-09-09T14:44:04.929Z,1.93
2022-09-09T14:46:33.469Z,2.60
2022-09-09T14:49:03.260Z,2.10
2022-09-09T14:51:31.826Z,2.10
2022-09-09T14:54:00.863Z,2.33
2022-09-09T14:56:30.638Z,1.83
2022-09-09T14:58:59.525Z,1.83
2022-09-09T15:01:29.161Z,1.87
2022-09-09T15:03:59.047Z,2.10
2022-09-09T15:06:30.093Z,1.80
2022-09-09T15:08:59.914Z,1.93
2022-09-09T15:11:28.893Z,2.23
2022-09-09T15:13:57.503Z,2.20
2022-09-09T15:16:27.743Z,1.93
2022-09-09T15:18:56.696Z,2.40
2022-09-09T15:21:25.571Z,2.53
2022-09-09T15:23:55.824Z,2.50
2022-09-09T15:26:24.371Z,2.20
2022-09-09T15:28:52.718Z,2.53
2022-09-09T15:31:21.721Z,2.53
2022-09-09T15:33:50.432Z,3.43
2022-09-09T15:36:19.365Z,4.37
2022-09-09T15:38:48.582Z,3.80
2022-09-09T15:41:18.555Z,3.67
2022-09-09T15:43:47.764Z,4.10
2022-09-09T15:46:27.108Z,4.10
2022-09-09T15:48:56.486Z,3.90
2022-09-09T15:51:41.684Z,4.20
2022-09-09T15:54:10.680Z,6.20
2022-09-09T15:56:40.620Z,6.17
2022-09-09T15:59:09.076Z,5.67
2022-09-09T16:01:37.488Z,6.20
2022-09-09T16:04:06.017Z,6.70
2022-09-09T16:06:34.549Z,7.30
2022-09-09T16:09:03.100Z,7.40
2022-09-09T16:11:32.124Z,8.30
2022-09-09T16:14:02.075Z,8.27
2022-09-09T16:16:32.145Z,9.07
2022-09-09T16:19:01.125Z,8.47
2022-09-09T16:21:31.152Z,9.77
2022-09-09T16:24:03.207Z,9.00
2022-09-09T16:26:32.027Z,9.77
2022-09-09T16:29:02.368Z,9.30
2022-09-09T16:31:30.929Z,7.70
2022-09-09T16:33:59.741Z,6.33
2022-09-09T16:36:28.703Z,6.83
2022-09-09T16:38:58.493Z,5.67
2022-09-09T16:41:26.958Z,5.67
2022-09-09T16:43:56.502Z,5.23
2022-09-09T16:46:26.412Z,4.67
2022-09-09T16:48:55.832Z,4.60
2022-09-09T16:51:25.548Z,4.17
2022-09-09T16:53:54.015Z,3.47
2022-09-09T16:56:25.509Z,3.63
2022-09-09T16:58:55.031Z,3.23
2022-09-09T17:01:23.592Z,3.20
2022-09-09T17:04:00.654Z,3.30
2022-09-09T17:06:29.923Z,3.40
2022-09-09T17:08:58.428Z,3.50
2022-09-09T17:11:26.891Z,4.27
2022-09-09T17:13:55.608Z,3.93
2022-09-09T17:16:24.530Z,4.03
2022-09-09T17:18:53.084Z,4.30
2022-09-09T17:21:23.068Z,4.07
2022-09-09T17:23:51.467Z,3.87
2022-09-09T17:26:20.358Z,4.17
2022-09-09T17:28:48.881Z,4.40
2022-09-09T17:31:17.586Z,4.70
2022-09-09T17:33:47.050Z,4.10
2022-09-09T17:36:16.092Z,4.40
2022-09-09T17:38:45.943Z,4.07
2022-09-09T17:41:14.820Z,4.17
2022-09-09T17:43:43.479Z,4.23
2022-09-09T17:46:12.339Z,4.10
2022-09-09T17:48:40.875Z,4.20
2022-09-09T17:51:10.055Z,3.60
2022-09-09T17:53:40.082Z,3.87
2022-09-09T17:56:10.430Z,4.33
2022-09-09T17:58:39.067Z,4.50
2022-09-09T18:01:07.478Z,3.50
2022-09-09T18:03:37.133Z,3.30
2022-09-09T18:06:05.930Z,3.90
2022-09-09T18:08:36.847Z,4.30
2022-09-09T18:11:05.602Z,3.90
2022-09-09T18:13:35.954Z,3.70
2022-09-09T18:16:04.758Z,3.73
2022-09-09T18:18:33.705Z,3.83
2022-09-09T18:21:02.362Z,4.10
2022-09-09T18:23:31.152Z,4.30
2022-09-09T18:26:00.151Z,4.13
2022-09-09T18:28:28.646Z,4.47
2022-09-09T18:30:58.401Z,4.70
2022-09-09T18:33:26.939Z,4.67
2022-09-09T18:35:56.731Z,5.00
2022-09-09T18:38:25.695Z,4.10
2022-09-09T18:40:54.324Z,5.80
2022-09-09T18:43:22.826Z,4.80
2022-09-09T18:45:51.250Z,5.40
2022-09-09T18:48:21.202Z,5.10
2022-09-09T18:50:49.719Z,5.23
2022-09-09T18:53:18.025Z,5.17
2022-09-09T18:55:46.410Z,5.00
2022-09-09T18:58:14.912Z,4.80
2022-09-09T19:00:43.285Z,4.80
2022-09-09T19:03:11.676Z,5.43
2022-09-09T19:05:41.549Z,5.43
2022-09-09T19:08:10.013Z,5.60
2022-09-09T19:10:38.410Z,5.20
2022-09-09T19:13:07.029Z,6.07
2022-09-09T19:15:37.546Z,5.80
2022-09-09T19:18:06.109Z,5.63
2022-09-09T19:20:34.677Z,5.10
2022-09-09T19:23:04.651Z,5.07
2022-09-09T19:25:37.442Z,4.97
2022-09-09T19:28:06.166Z,5.43
2022-09-09T19:30:37.616Z,5.23
2022-09-09T19:33:06.825Z,5.00
2022-09-09T19:35:35.767Z,5.10
2022-09-09T19:38:05.505Z,5.20
2022-09-09T19:40:35.487Z,5.63
2022-09-09T19:43:03.860Z,5.10
2022-09-09T19:45:32.643Z,5.03
2022-09-09T19:48:01.309Z,5.00
2022-09-09T19:50:29.781Z,5.43
2022-09-09T19:52:58.135Z,5.30
2022-09-09T19:55:28.937Z,4.93
2022-09-09T19:57:57.437Z,4.67
2022-09-09T20:00:26.236Z,4.80
2022-09-09T20:03:17.781Z,4.40
2022-09-09T20:05:43.507Z,4.80
2022-09-09T20:08:11.788Z,4.40
2022-09-09T20:10:41.473Z,3.77
2022-09-09T20:13:09.839Z,3.67
2022-09-09T20:15:38.358Z,4.07
2022-09-09T20:18:06.941Z,3.70
2022-09-09T20:20:35.458Z,4.00
2022-09-09T20:23:04.037Z,3.63
2022-09-09T20:25:32.567Z,4.40
2022-09-09T20:28:02.423Z,4.67
2022-09-09T20:30:31.057Z,4.23
2022-09-09T20:33:00.154Z,4.37
2022-09-09T20:35:31.353Z,4.43
2022-09-09T20:38:00.871Z,4.53
2022-09-09T20:40:32.865Z,4.67
2022-09-09T20:43:03.305Z,4.83
2022-09-09T20:45:32.241Z,4.67
2022-09-09T20:48:00.607Z,4.70
2022-09-09T20:50:29.090Z,4.70
2022-09-09T20:52:57.520Z,4.97
2022-09-09T20:55:27.198Z,4.93
2022-09-09T20:57:58.758Z,4.97
2022-09-09T21:00:30.157Z,4.90
2022-09-09T21:02:58.505Z,4.97
2022-09-09T21:05:27.889Z,4.60
2022-09-09T21:07:56.905Z,4.60
2022-09-09T21:10:26.405Z,5.27
2022-09-09T21:12:54.987Z,4.60
2022-09-09T21:15:24.474Z,4.87
2022-09-09T21:17:54.594Z,4.23
2022-09-09T21:20:23.136Z,4.83
2022-09-09T21:22:51.616Z,4.40
2022-09-09T21:25:20.148Z,4.13
2022-09-09T21:27:48.822Z,4.77
2022-09-09T21:30:17.311Z,5.50
2022-09-09T21:32:45.656Z,4.70
2022-09-09T21:35:16.734Z,5.67
2022-09-09T21:37:45.440Z,5.87
2022-09-09T21:40:13.940Z,5.37
2022-09-09T21:42:42.251Z,6.03
2022-09-09T21:45:11.235Z,6.03
2022-09-09T21:47:39.693Z,5.53
2022-09-09T21:50:08.609Z,6.00
2022-09-09T21:52:38.316Z,6.23
2022-09-09T21:55:07.185Z,5.93
2022-09-09T21:57:35.633Z,7.00
2022-09-09T22:00:05.297Z,6.70
2022-09-09T22:02:37.353Z,7.00
2022-09-09T22:05:06.496Z,7.27
2022-09-09T22:07:35.188Z,7.40
2022-09-09T22:10:05.315Z,8.30
2022-09-09T22:12:36.692Z,7.77
2022-09-09T22:15:08.983Z,7.43
2022-09-09T22:17:37.764Z,7.83
2022-09-09T22:20:07.424Z,7.27
2022-09-09T22:22:35.935Z,7.87
2022-09-09T22:25:06.053Z,6.70
2022-09-09T22:27:34.413Z,5.97
2022-09-09T22:30:03.043Z,5.93
2022-09-09T22:32:31.928Z,5.70
2022-09-09T22:35:00.717Z,5.87
2022-09-09T22:37:29.000Z,6.23
2022-09-09T22:39:58.246Z,6.13
2022-09-09T22:42:28.113Z,6.40
2022-09-09T22:44:56.612Z,5.13
2022-09-09T22:47:25.177Z,6.60
2022-09-09T22:49:53.882Z,4.50
2022-09-09T22:52:22.550Z,4.17
2022-09-09T22:54:52.163Z,3.97
2022-09-09T22:57:20.534Z,4.97
2022-09-09T22:59:50.389Z,5.27
2022-09-09T23:02:20.688Z,5.83
2022-09-09T23:04:49.206Z,6.27
2022-09-09T23:07:22.976Z,6.97
2022-09-09T23:09:51.763Z,6.50
2022-09-09T23:12:22.685Z,6.07
2022-09-09T23:14:54.264Z,5.80
2022-09-09T23:17:22.979Z,5.40
2022-09-09T23:19:53.331Z,4.70
2022-09-09T23:22:22.606Z,4.10
2022-09-09T23:24:54.129Z,3.77
2022-09-09T23:27:22.753Z,3.43
2022-09-09T23:29:52.642Z,2.80
2022-09-09T23:32:21.164Z,3.07
2022-09-09T23:34:49.989Z,2.80
2022-09-09T23:37:19.098Z,2.57
2022-09-09T23:39:48.400Z,2.93
2022-09-09T23:42:16.846Z,2.90
2022-09-09T23:44:45.636Z,2.57
2022-09-09T23:47:15.730Z,2.70
2022-09-09T23:49:44.539Z,3.10
2022-09-09T23:52:13.509Z,3.10
2022-09-09T23:54:42.099Z,3.27
2022-09-09T23:57:12.015Z,3.37
2022-09-09T23:59:40.409Z,3.77
